sensor_id;sensor_type;location;lat;lon;timestamp;pressure;altitude;pressure_sealevel;temperature;humidity
9277;BME280;4676;42.678;23.244;2023-11-21T00:01:13;93895.44;;;4.81;100.00
9277;BME280;4676;42.678;23.244;2023-11-21T00:03:40;93896.34;;;4.77;100.00
9277;BME280;4676;42.678;23.244;2023-11-21T00:06:07;93896.44;;;4.74;100.00
9277;BME280;4676;42.678;23.244;2023-11-21T00:08:34;93892.22;;;4.74;100.00
9277;BME280;4676;42.678;23.244;2023-11-21T00:11:01;93893.38;;;4.60;100.00
9277;BME280;4676;42.678;23.244;2023-11-21T00:13:29;93895.81;;;4.64;100.00
9277;BME280;4676;42.678;23.244;2023-11-21T00:15:55;93906.16;;;4.47;100.00
9277;BME280;4676;42.678;23.244;2023-11-21T00:18:23;93899.31;;;4.54;100.00
9277;BME280;4676;42.678;23.244;2023-11-21T00:20:50;93893.53;;;4.52;100.00
9277;BME280;4676;42.678;23.244;2023-11-21T00:23:17;93897.00;;;4.45;100.00
9277;BME280;4676;42.678;23.244;2023-11-21T00:25:44;93898.56;;;4.50;100.00
9277;BME280;4676;42.678;23.244;2023-11-21T00:28:10;93892.75;;;4.48;100.00
9277;BME280;4676;42.678;23.244;2023-11-21T00:30:37;93897.09;;;4.42;100.00
9277;BME280;4676;42.678;23.244;2023-11-21T00:33:04;93887.13;;;4.39;100.00
9277;BME280;4676;42.678;23.244;2023-11-21T00:35:32;93846.66;;;4.13;100.00
9277;BME280;4676;42.678;23.244;2023-11-21T00:37:58;93888.38;;;4.58;100.00
9277;BME280;4676;42.678;23.244;2023-11-21T00:40:25;93893.47;;;4.55;100.00
9277;BME280;4676;42.678;23.244;2023-11-21T00:42:52;93892.91;;;4.41;100.00
9277;BME280;4676;42.678;23.244;2023-11-21T00:45:18;93895.41;;;4.41;100.00
9277;BME280;4676;42.678;23.244;2023-11-21T00:47:45;93898.06;;;4.33;100.00
9277;BME280;4676;42.678;23.244;2023-11-21T00:50:12;93895.56;;;4.35;100.00
9277;BME280;4676;42.678;23.244;2023-11-21T00:52:40;93889.50;;;4.43;100.00
9277;BME280;4676;42.678;23.244;2023-11-21T00:55:07;93887.94;;;4.39;100.00
9277;BME280;4676;42.678;23.244;2023-11-21T00:57:35;93821.00;;;4.00;100.00
9277;BME280;4676;42.678;23.244;2023-11-21T01:00:03;93881.19;;;4.41;100.00
9277;BME280;4676;42.678;23.244;2023-11-21T01:02:36;93882.94;;;4.39;100.00
9277;BME280;4676;42.678;23.244;2023-11-21T01:05:04;93876.34;;;4.34;100.00
9277;BME280;4676;42.678;23.244;2023-11-21T01:07:33;93876.38;;;4.32;100.00
9277;BME280;4676;42.678;23.244;2023-11-21T01:10:01;93862.03;;;4.39;100.00
9277;BME280;4676;42.678;23.244;2023-11-21T01:12:27;93866.00;;;4.47;100.00
9277;BME280;4676;42.678;23.244;2023-11-21T01:14:54;93865.41;;;4.36;100.00
9277;BME280;4676;42.678;23.244;2023-11-21T01:17:21;93871.44;;;4.28;100.00
9277;BME280;4676;42.678;23.244;2023-11-21T01:19:49;93877.31;;;4.27;100.00
9277;BME280;4676;42.678;23.244;2023-11-21T01:22:15;93881.03;;;4.08;100.00
9277;BME280;4676;42.678;23.244;2023-11-21T01:24:43;93880.28;;;4.02;100.00
9277;BME280;4676;42.678;23.244;2023-11-21T01:27:11;93871.09;;;4.03;100.00
9277;BME280;4676;42.678;23.244;2023-11-21T01:29:38;93869.34;;;4.08;100.00
9277;BME280;4676;42.678;23.244;2023-11-21T01:32:05;93867.88;;;3.95;100.00
9277;BME280;4676;42.678;23.244;2023-11-21T01:34:33;93865.44;;;3.93;100.00
9277;BME280;4676;42.678;23.244;2023-11-21T01:37:00;93877.84;;;3.98;100.00
9277;BME280;4676;42.678;23.244;2023-11-21T01:39:27;93885.56;;;3.89;100.00
9277;BME280;4676;42.678;23.244;2023-11-21T01:41:54;93884.72;;;3.88;100.00
9277;BME280;4676;42.678;23.244;2023-11-21T01:44:22;93882.16;;;3.93;100.00
9277;BME280;4676;42.678;23.244;2023-11-21T01:46:50;93875.50;;;3.90;100.00
9277;BME280;4676;42.678;23.244;2023-11-21T01:49:17;93859.03;;;3.77;100.00
9277;BME280;4676;42.678;23.244;2023-11-21T01:51:47;93854.69;;;3.87;100.00
9277;BME280;4676;42.678;23.244;2023-11-21T01:54:15;93860.69;;;3.80;100.00
9277;BME280;4676;42.678;23.244;2023-11-21T01:56:44;93866.47;;;3.80;100.00
9277;BME280;4676;42.678;23.244;2023-11-21T01:59:14;93868.16;;;3.81;100.00
9277;BME280;4676;42.678;23.244;2023-11-21T02:01:44;93863.78;;;3.91;100.00
9277;BME280;4676;42.678;23.244;2023-11-21T02:04:12;93863.06;;;3.84;100.00
9277;BME280;4676;42.678;23.244;2023-11-21T02:06:39;93876.69;;;3.71;100.00
9277;BME280;4676;42.678;23.244;2023-11-21T02:09:05;93867.50;;;3.70;100.00
9277;BME280;4676;42.678;23.244;2023-11-21T02:11:34;93869.19;;;3.70;100.00
9277;BME280;4676;42.678;23.244;2023-11-21T02:14:04;93868.50;;;3.62;100.00
9277;BME280;4676;42.678;23.244;2023-11-21T02:16:32;93871.81;;;3.64;100.00
9277;BME280;4676;42.678;23.244;2023-11-21T02:19:01;93857.53;;;3.69;100.00
9277;BME280;4676;42.678;23.244;2023-11-21T02:21:30;93856.81;;;3.61;100.00
9277;BME280;4676;42.678;23.244;2023-11-21T02:23:58;93857.72;;;3.57;100.00
9277;BME280;4676;42.678;23.244;2023-11-21T02:26:25;93860.28;;;3.55;100.00
9277;BME280;4676;42.678;23.244;2023-11-21T02:28:52;93859.25;;;3.65;100.00
9277;BME280;4676;42.678;23.244;2023-11-21T02:31:19;93856.50;;;3.79;100.00
9277;BME280;4676;42.678;23.244;2023-11-21T02:33:46;93857.34;;;3.78;100.00
9277;BME280;4676;42.678;23.244;2023-11-21T02:36:13;93859.72;;;3.87;100.00
9277;BME280;4676;42.678;23.244;2023-11-21T02:38:39;93853.25;;;3.74;100.00
9277;BME280;4676;42.678;23.244;2023-11-21T02:41:07;93863.31;;;3.72;100.00
9277;BME280;4676;42.678;23.244;2023-11-21T02:43:34;93858.44;;;3.65;100.00
9277;BME280;4676;42.678;23.244;2023-11-21T02:46:01;93864.47;;;3.53;100.00
9277;BME280;4676;42.678;23.244;2023-11-21T02:48:27;93851.22;;;3.48;100.00
9277;BME280;4676;42.678;23.244;2023-11-21T02:50:56;93863.09;;;3.37;100.00
9277;BME280;4676;42.678;23.244;2023-11-21T02:53:22;93862.00;;;3.51;100.00
9277;BME280;4676;42.678;23.244;2023-11-21T02:55:49;93857.06;;;3.47;100.00
9277;BME280;4676;42.678;23.244;2023-11-21T02:58:18;93853.63;;;3.52;100.00
9277;BME280;4676;42.678;23.244;2023-11-21T03:00:45;93850.97;;;3.62;100.00
9277;BME280;4676;42.678;23.244;2023-11-21T03:03:12;93837.56;;;3.63;100.00
9277;BME280;4676;42.678;23.244;2023-11-21T03:05:39;93846.09;;;3.52;100.00
9277;BME280;4676;42.678;23.244;2023-11-21T03:08:06;93844.38;;;3.56;100.00
9277;BME280;4676;42.678;23.244;2023-11-21T03:10:33;93845.50;;;3.40;100.00
9277;BME280;4676;42.678;23.244;2023-11-21T03:13:02;93850.28;;;3.52;100.00
9277;BME280;4676;42.678;23.244;2023-11-21T03:15:31;93851.41;;;3.37;100.00
9277;BME280;4676;42.678;23.244;2023-11-21T03:17:58;93851.25;;;3.45;100.00
9277;BME280;4676;42.678;23.244;2023-11-21T03:20:24;93859.53;;;3.48;100.00
9277;BME280;4676;42.678;23.244;2023-11-21T03:22:51;93863.94;;;3.36;100.00
9277;BME280;4676;42.678;23.244;2023-11-21T03:25:18;93861.50;;;3.31;100.00
9277;BME280;4676;42.678;23.244;2023-11-21T03:27:45;93867.25;;;3.36;100.00
9277;BME280;4676;42.678;23.244;2023-11-21T03:30:12;93871.56;;;3.28;100.00
9277;BME280;4676;42.678;23.244;2023-11-21T03:32:40;93861.47;;;3.33;100.00
9277;BME280;4676;42.678;23.244;2023-11-21T03:35:07;93864.00;;;3.31;100.00
9277;BME280;4676;42.678;23.244;2023-11-21T03:37:34;93856.47;;;3.33;100.00
9277;BME280;4676;42.678;23.244;2023-11-21T03:40:01;93843.34;;;3.19;100.00
9277;BME280;4676;42.678;23.244;2023-11-21T03:42:29;93850.56;;;3.37;100.00
9277;BME280;4676;42.678;23.244;2023-11-21T03:44:56;93839.72;;;3.35;100.00
9277;BME280;4676;42.678;23.244;2023-11-21T03:47:22;93832.91;;;3.43;100.00
9277;BME280;4676;42.678;23.244;2023-11-21T03:49:51;93836.28;;;3.42;100.00
9277;BME280;4676;42.678;23.244;2023-11-21T03:52:17;93838.09;;;3.34;100.00
9277;BME280;4676;42.678;23.244;2023-11-21T03:54:44;93828.22;;;3.25;100.00
9277;BME280;4676;42.678;23.244;2023-11-21T03:57:11;93837.16;;;3.38;100.00
9277;BME280;4676;42.678;23.244;2023-11-21T03:59:39;93835.47;;;3.40;100.00
9277;BME280;4676;42.678;23.244;2023-11-21T04:02:06;93833.94;;;3.33;100.00
9277;BME280;4676;42.678;23.244;2023-11-21T04:04:33;93834.66;;;3.38;100.00
9277;BME280;4676;42.678;23.244;2023-11-21T04:07:01;93832.91;;;3.44;100.00
9277;BME280;4676;42.678;23.244;2023-11-21T04:09:28;93827.91;;;3.43;100.00
9277;BME280;4676;42.678;23.244;2023-11-21T04:11:55;93827.19;;;3.36;100.00
9277;BME280;4676;42.678;23.244;2023-11-21T04:14:22;93826.50;;;3.28;100.00
9277;BME280;4676;42.678;23.244;2023-11-21T04:19:14;93834.66;;;3.39;100.00
9277;BME280;4676;42.678;23.244;2023-11-21T04:21:41;93831.31;;;3.40;100.00
9277;BME280;4676;42.678;23.244;2023-11-21T04:24:09;93815.81;;;3.19;100.00
9277;BME280;4676;42.678;23.244;2023-11-21T04:26:36;93838.06;;;3.35;100.00
9277;BME280;4676;42.678;23.244;2023-11-21T04:29:03;93816.72;;;3.13;100.00
9277;BME280;4676;42.678;23.244;2023-11-21T04:31:31;93838.22;;;3.26;100.00
9277;BME280;4676;42.678;23.244;2023-11-21T04:33:58;93840.00;;;3.20;100.00
9277;BME280;4676;42.678;23.244;2023-11-21T04:36:25;93840.75;;;3.25;100.00
9277;BME280;4676;42.678;23.244;2023-11-21T04:38:51;93832.22;;;3.35;100.00
9277;BME280;4676;42.678;23.244;2023-11-21T04:41:19;93828.94;;;3.33;100.00
9277;BME280;4676;42.678;23.244;2023-11-21T04:43:46;93828.88;;;3.36;100.00
9277;BME280;4676;42.678;23.244;2023-11-21T04:46:13;93835.38;;;3.46;100.00
9277;BME280;4676;42.678;23.244;2023-11-21T04:48:40;93843.81;;;3.40;100.00
9277;BME280;4676;42.678;23.244;2023-11-21T04:51:06;93851.34;;;3.40;100.00
9277;BME280;4676;42.678;23.244;2023-11-21T04:53:33;93847.09;;;3.44;100.00
9277;BME280;4676;42.678;23.244;2023-11-21T04:56:00;93840.63;;;3.31;100.00
9277;BME280;4676;42.678;23.244;2023-11-21T04:58:28;93834.09;;;3.22;100.00
9277;BME280;4676;42.678;23.244;2023-11-21T05:00:55;93848.19;;;3.28;100.00
9277;BME280;4676;42.678;23.244;2023-11-21T05:03:22;93856.53;;;3.28;100.00
9277;BME280;4676;42.678;23.244;2023-11-21T05:05:49;93850.69;;;3.28;100.00
9277;BME280;4676;42.678;23.244;2023-11-21T05:08:16;93841.47;;;3.31;100.00
9277;BME280;4676;42.678;23.244;2023-11-21T05:10:42;93832.19;;;3.36;100.00
9277;BME280;4676;42.678;23.244;2023-11-21T05:13:09;93832.97;;;3.40;100.00
9277;BME280;4676;42.678;23.244;2023-11-21T05:15:37;93829.66;;;3.39;100.00
9277;BME280;4676;42.678;23.244;2023-11-21T05:18:04;93831.31;;;3.40;100.00
9277;BME280;4676;42.678;23.244;2023-11-21T05:20:31;93832.97;;;3.40;100.00
9277;BME280;4676;42.678;23.244;2023-11-21T05:22:58;93834.53;;;3.47;100.00
9277;BME280;4676;42.678;23.244;2023-11-21T05:25:25;93837.91;;;3.44;100.00
9277;BME280;4676;42.678;23.244;2023-11-21T05:27:52;93845.63;;;3.34;100.00
9277;BME280;4676;42.678;23.244;2023-11-21T05:30:22;93833.22;;;3.26;100.00
9277;BME280;4676;42.678;23.244;2023-11-21T05:32:50;93846.34;;;3.40;100.00
9277;BME280;4676;42.678;23.244;2023-11-21T05:35:16;93848.78;;;3.43;100.00
9277;BME280;4676;42.678;23.244;2023-11-21T05:37:43;93825.72;;;3.25;100.00
9277;BME280;4676;42.678;23.244;2023-11-21T05:40:11;93855.34;;;3.49;100.00
9277;BME280;4676;42.678;23.244;2023-11-21T05:42:39;93848.78;;;3.42;100.00
9277;BME280;4676;42.678;23.244;2023-11-21T05:45:06;93852.25;;;3.36;100.00
9277;BME280;4676;42.678;23.244;2023-11-21T05:47:37;93853.91;;;3.36;100.00
9277;BME280;4676;42.678;23.244;2023-11-21T05:50:07;93842.88;;;3.46;100.00
9277;BME280;4676;42.678;23.244;2023-11-21T05:52:35;93835.44;;;3.43;100.00
9277;BME280;4676;42.678;23.244;2023-11-21T05:55:02;93796.31;;;3.37;100.00
9277;BME280;4676;42.678;23.244;2023-11-21T05:57:31;93843.88;;;3.37;100.00
9277;BME280;4676;42.678;23.244;2023-11-21T05:59:57;93846.56;;;3.25;100.00
9277;BME280;4676;42.678;23.244;2023-11-21T06:02:24;93844.00;;;3.28;100.00
9277;BME280;4676;42.678;23.244;2023-11-21T06:04:51;93848.06;;;3.35;100.00
9277;BME280;4676;42.678;23.244;2023-11-21T06:07:19;93843.13;;;3.31;100.00
9277;BME280;4676;42.678;23.244;2023-11-21T06:09:46;93842.94;;;3.43;100.00
9277;BME280;4676;42.678;23.244;2023-11-21T06:12:15;93857.06;;;3.47;100.00
9277;BME280;4676;42.678;23.244;2023-11-21T06:14:42;93850.47;;;3.41;100.00
9277;BME280;4676;42.678;23.244;2023-11-21T06:17:09;93859.44;;;3.55;100.00
9277;BME280;4676;42.678;23.244;2023-11-21T06:19:36;93860.31;;;3.52;100.00
9277;BME280;4676;42.678;23.244;2023-11-21T06:22:03;93860.28;;;3.53;100.00
9277;BME280;4676;42.678;23.244;2023-11-21T06:24:31;93861.72;;;3.67;100.00
9277;BME280;4676;42.678;23.244;2023-11-21T06:26:58;93863.97;;;3.80;100.00
9277;BME280;4676;42.678;23.244;2023-11-21T06:29:24;93863.13;;;3.81;100.00
9277;BME280;4676;42.678;23.244;2023-11-21T06:31:52;93863.81;;;3.89;100.00
9277;BME280;4676;42.678;23.244;2023-11-21T06:34:20;93868.06;;;3.86;100.00
9277;BME280;4676;42.678;23.244;2023-11-21T06:36:47;93863.00;;;3.89;100.00
9277;BME280;4676;42.678;23.244;2023-11-21T06:39:13;93875.47;;;3.93;100.00
9277;BME280;4676;42.678;23.244;2023-11-21T06:41:43;93868.66;;;3.98;100.00
9277;BME280;4676;42.678;23.244;2023-11-21T06:44:10;93881.13;;;4.01;100.00
9277;BME280;4676;42.678;23.244;2023-11-21T06:46:36;93876.88;;;4.05;100.00
9277;BME280;4676;42.678;23.244;2023-11-21T06:49:07;93878.41;;;4.12;100.00
9277;BME280;4676;42.678;23.244;2023-11-21T06:51:34;93885.88;;;4.15;100.00
9277;BME280;4676;42.678;23.244;2023-11-21T06:54:01;93892.50;;;4.19;100.00
9277;BME280;4676;42.678;23.244;2023-11-21T06:56:27;93885.75;;;4.23;100.00
9277;BME280;4676;42.678;23.244;2023-11-21T06:58:55;93885.59;;;4.30;100.00
9277;BME280;4676;42.678;23.244;2023-11-21T07:01:22;93888.28;;;4.21;100.00
9277;BME280;4676;42.678;23.244;2023-11-21T07:03:50;93892.97;;;4.39;100.00
9277;BME280;4676;42.678;23.244;2023-11-21T07:06:16;93876.94;;;4.46;100.00
9277;BME280;4676;42.678;23.244;2023-11-21T07:08:43;93886.16;;;4.44;100.00
9277;BME280;4676;42.678;23.244;2023-11-21T07:11:17;93881.19;;;4.41;100.00
9277;BME280;4676;42.678;23.244;2023-11-21T07:13:44;93870.16;;;4.50;100.00
9277;BME280;4676;42.678;23.244;2023-11-21T07:16:12;93878.34;;;4.58;100.00
9277;BME280;4676;42.678;23.244;2023-11-21T07:18:40;93867.25;;;4.68;100.00
9277;BME280;4676;42.678;23.244;2023-11-21T07:21:07;93866.56;;;4.62;100.00
9277;BME280;4676;42.678;23.244;2023-11-21T07:23:34;93873.00;;;4.75;100.00
9277;BME280;4676;42.678;23.244;2023-11-21T07:26:01;93876.19;;;4.81;100.00
9277;BME280;4676;42.678;23.244;2023-11-21T07:28:29;93875.28;;;4.84;100.00
9277;BME280;4676;42.678;23.244;2023-11-21T07:30:56;93884.25;;;4.95;100.00
9277;BME280;4676;42.678;23.244;2023-11-21T07:33:24;93888.50;;;4.92;100.00
9277;BME280;4676;42.678;23.244;2023-11-21T07:35:51;93887.53;;;4.97;100.00
9277;BME280;4676;42.678;23.244;2023-11-21T07:38:18;93885.09;;;4.94;100.00
9277;BME280;4676;42.678;23.244;2023-11-21T07:40:44;93880.06;;;4.94;100.00
9277;BME280;4676;42.678;23.244;2023-11-21T07:43:11;93886.59;;;5.01;100.00
9277;BME280;4676;42.678;23.244;2023-11-21T07:45:38;93881.03;;;5.26;100.00
9277;BME280;4676;42.678;23.244;2023-11-21T07:48:05;93866.03;;;5.23;100.00
9277;BME280;4676;42.678;23.244;2023-11-21T07:50:33;93862.28;;;5.39;100.00
9277;BME280;4676;42.678;23.244;2023-11-21T07:53:00;93864.16;;;5.31;100.00
9277;BME280;4676;42.678;23.244;2023-11-21T07:55:27;93863.91;;;5.41;100.00
9277;BME280;4676;42.678;23.244;2023-11-21T07:57:57;93871.66;;;5.32;100.00
9277;BME280;4676;42.678;23.244;2023-11-21T08:00:24;93862.25;;;5.40;100.00
9277;BME280;4676;42.678;23.244;2023-11-21T08:02:55;93866.19;;;5.50;100.00
9277;BME280;4676;42.678;23.244;2023-11-21T08:05:22;93858.00;;;5.42;100.00
9277;BME280;4676;42.678;23.244;2023-11-21T08:07:50;93858.91;;;5.40;100.00
9277;BME280;4676;42.678;23.244;2023-11-21T08:10:17;93859.31;;;5.57;100.00
9277;BME280;4676;42.678;23.244;2023-11-21T08:12:43;93863.91;;;5.74;100.00
9277;BME280;4676;42.678;23.244;2023-11-21T08:15:10;93856.47;;;5.71;100.00
9277;BME280;4676;42.678;23.244;2023-11-21T08:17:37;93868.16;;;5.73;100.00
9277;BME280;4676;42.678;23.244;2023-11-21T08:20:04;93852.91;;;5.79;100.00
9277;BME280;4676;42.678;23.244;2023-11-21T08:22:33;93849.38;;;5.85;100.00
9277;BME280;4676;42.678;23.244;2023-11-21T08:25:03;93859.81;;;6.05;100.00
9277;BME280;4676;42.678;23.244;2023-11-21T08:27:30;93852.91;;;6.12;100.00
9277;BME280;4676;42.678;23.244;2023-11-21T08:29:56;93858.84;;;6.09;100.00
9277;BME280;4676;42.678;23.244;2023-11-21T08:32:23;93857.97;;;6.10;100.00
9277;BME280;4676;42.678;23.244;2023-11-21T08:34:50;93852.81;;;6.15;100.00
9277;BME280;4676;42.678;23.244;2023-11-21T08:37:17;93791.47;;;5.89;100.00
9277;BME280;4676;42.678;23.244;2023-11-21T08:39:44;93839.69;;;6.34;100.00
9277;BME280;4676;42.678;23.244;2023-11-21T08:42:12;93852.09;;;6.40;100.00
9277;BME280;4676;42.678;23.244;2023-11-21T08:44:38;93852.50;;;6.56;100.00
9277;BME280;4676;42.678;23.244;2023-11-21T08:47:05;93856.66;;;6.57;100.00
9277;BME280;4676;42.678;23.244;2023-11-21T08:49:32;93851.16;;;6.72;100.00
9277;BME280;4676;42.678;23.244;2023-11-21T08:51:58;93850.59;;;6.92;100.00
9277;BME280;4676;42.678;23.244;2023-11-21T08:54:25;93840.22;;;7.01;100.00
9277;BME280;4676;42.678;23.244;2023-11-21T08:56:52;93834.94;;;7.10;100.00
9277;BME280;4676;42.678;23.244;2023-11-21T08:59:21;93826.69;;;7.31;100.00
9277;BME280;4676;42.678;23.244;2023-11-21T09:01:48;93830.56;;;7.15;100.00
9277;BME280;4676;42.678;23.244;2023-11-21T09:04:14;93826.22;;;7.20;100.00
9277;BME280;4676;42.678;23.244;2023-11-21T09:06:41;93823.50;;;7.26;100.00
9277;BME280;4676;42.678;23.244;2023-11-21T09:09:08;93806.56;;;7.30;100.00
9277;BME280;4676;42.678;23.244;2023-11-21T09:11:35;93799.72;;;7.33;100.00
9277;BME280;4676;42.678;23.244;2023-11-21T09:14:02;93800.50;;;7.35;100.00
9277;BME280;4676;42.678;23.244;2023-11-21T09:16:30;93798.31;;;7.51;100.00
9277;BME280;4676;42.678;23.244;2023-11-21T09:18:57;93793.06;;;7.57;100.00
9277;BME280;4676;42.678;23.244;2023-11-21T09:21:24;93780.19;;;7.65;100.00
9277;BME280;4676;42.678;23.244;2023-11-21T09:23:51;93773.31;;;7.70;100.00
9277;BME280;4676;42.678;23.244;2023-11-21T09:26:18;93762.66;;;7.85;100.00
9277;BME280;4676;42.678;23.244;2023-11-21T09:28:45;93761.16;;;7.81;100.00
9277;BME280;4676;42.678;23.244;2023-11-21T09:31:13;93762.97;;;7.77;100.00
9277;BME280;4676;42.678;23.244;2023-11-21T09:33:42;93758.22;;;7.68;100.00
9277;BME280;4676;42.678;23.244;2023-11-21T09:36:11;93747.31;;;7.68;100.00
9277;BME280;4676;42.678;23.244;2023-11-21T09:38:40;93737.22;;;7.68;100.00
9277;BME280;4676;42.678;23.244;2023-11-21T09:41:11;93741.34;;;7.70;100.00
9277;BME280;4676;42.678;23.244;2023-11-21T09:43:43;93727.00;;;7.71;100.00
9277;BME280;4676;42.678;23.244;2023-11-21T09:46:13;93722.59;;;7.77;100.00
9277;BME280;4676;42.678;23.244;2023-11-21T09:48:49;93720.84;;;7.79;100.00
9277;BME280;4676;42.678;23.244;2023-11-21T09:51:19;93714.94;;;7.80;100.00
9277;BME280;4676;42.678;23.244;2023-11-21T09:53:50;93716.00;;;7.96;100.00
9277;BME280;4676;42.678;23.244;2023-11-21T09:56:18;93711.16;;;8.14;100.00
9277;BME280;4676;42.678;23.244;2023-11-21T09:58:51;93710.84;;;8.23;100.00
9277;BME280;4676;42.678;23.244;2023-11-21T10:01:19;93700.13;;;8.39;100.00
9277;BME280;4676;42.678;23.244;2023-11-21T10:03:48;93702.19;;;8.51;100.00
9277;BME280;4676;42.678;23.244;2023-11-21T10:06:17;93682.47;;;8.61;100.00
9277;BME280;4676;42.678;23.244;2023-11-21T10:08:45;93689.75;;;8.69;100.00
9277;BME280;4676;42.678;23.244;2023-11-21T10:11:14;93673.38;;;8.77;100.00
9277;BME280;4676;42.678;23.244;2023-11-21T10:13:42;93682.94;;;8.91;100.00
9277;BME280;4676;42.678;23.244;2023-11-21T10:16:14;93675.75;;;9.02;100.00
9277;BME280;4676;42.678;23.244;2023-11-21T10:18:48;93678.09;;;9.07;100.00
9277;BME280;4676;42.678;23.244;2023-11-21T10:21:19;93664.13;;;8.98;100.00
9277;BME280;4676;42.678;23.244;2023-11-21T10:23:47;93662.72;;;8.91;100.00
9277;BME280;4676;42.678;23.244;2023-11-21T10:26:14;93670.78;;;9.00;100.00
9277;BME280;4676;42.678;23.244;2023-11-21T10:28:41;93654.31;;;8.90;100.00
9277;BME280;4676;42.678;23.244;2023-11-21T10:31:21;93676.56;;;9.02;100.00
9277;BME280;4676;42.678;23.244;2023-11-21T10:33:50;93666.84;;;8.93;100.00
9277;BME280;4676;42.678;23.244;2023-11-21T10:36:25;93659.72;;;9.03;100.00
9277;BME280;4676;42.678;23.244;2023-11-21T10:38:53;93666.34;;;9.06;100.00
9277;BME280;4676;42.678;23.244;2023-11-21T10:41:19;93665.84;;;9.18;100.00
9277;BME280;4676;42.678;23.244;2023-11-21T10:43:46;93658.19;;;9.19;100.00
9277;BME280;4676;42.678;23.244;2023-11-21T10:46:13;93660.97;;;9.13;100.00
9277;BME280;4676;42.678;23.244;2023-11-21T10:48:41;93655.03;;;9.14;100.00
9277;BME280;4676;42.678;23.244;2023-11-21T10:51:10;93653.19;;;9.18;100.00
9277;BME280;4676;42.678;23.244;2023-11-21T10:53:40;93647.19;;;9.20;100.00
9277;BME280;4676;42.678;23.244;2023-11-21T10:56:08;93645.91;;;9.30;100.00
9277;BME280;4676;42.678;23.244;2023-11-21T10:58:38;93639.28;;;9.28;100.00
9277;BME280;4676;42.678;23.244;2023-11-21T11:01:06;93641.81;;;9.28;100.00
9277;BME280;4676;42.678;23.244;2023-11-21T11:03:37;93638.50;;;9.26;100.00
9277;BME280;4676;42.678;23.244;2023-11-21T11:06:05;93633.09;;;9.35;100.00
9277;BME280;4676;42.678;23.244;2023-11-21T11:08:39;93635.16;;;9.64;100.00
9277;BME280;4676;42.678;23.244;2023-11-21T11:11:06;93624.03;;;9.49;100.00
9277;BME280;4676;42.678;23.244;2023-11-21T11:13:35;93625.50;;;9.53;100.00
9277;BME280;4676;42.678;23.244;2023-11-21T11:16:03;93621.91;;;9.59;100.00
9277;BME280;4676;42.678;23.244;2023-11-21T11:18:32;93583.44;;;9.32;100.00
9277;BME280;4676;42.678;23.244;2023-11-21T11:21:11;93613.28;;;9.63;100.00
9277;BME280;4676;42.678;23.244;2023-11-21T11:23:58;93603.31;;;9.60;100.00
9277;BME280;4676;42.678;23.244;2023-11-21T11:26:37;93599.59;;;9.48;100.00
9277;BME280;4676;42.678;23.244;2023-11-21T11:29:12;93592.50;;;9.57;100.00
9277;BME280;4676;42.678;23.244;2023-11-21T11:31:50;93587.56;;;9.53;100.00
9277;BME280;4676;42.678;23.244;2023-11-21T11:34:28;93589.84;;;9.60;100.00
9277;BME280;4676;42.678;23.244;2023-11-21T11:37:00;93587.91;;;9.65;100.00
9277;BME280;4676;42.678;23.244;2023-11-21T11:39:33;93589.75;;;9.61;100.00
9277;BME280;4676;42.678;23.244;2023-11-21T11:42:03;93608.09;;;9.66;100.00
9277;BME280;4676;42.678;23.244;2023-11-21T11:44:50;93601.38;;;9.65;100.00
9277;BME280;4676;42.678;23.244;2023-11-21T11:47:21;93596.19;;;9.49;100.00
9277;BME280;4676;42.678;23.244;2023-11-21T11:50:00;93597.78;;;9.71;100.00
9277;BME280;4676;42.678;23.244;2023-11-21T11:52:33;93606.16;;;9.71;100.00
9277;BME280;4676;42.678;23.244;2023-11-21T11:55:02;93587.72;;;9.69;100.00
9277;BME280;4676;42.678;23.244;2023-11-21T11:57:30;93582.25;;;9.60;100.00
9277;BME280;4676;42.678;23.244;2023-11-21T12:00:14;93594.88;;;9.41;100.00
9277;BME280;4676;42.678;23.244;2023-11-21T12:02:46;93608.53;;;9.37;100.00
9277;BME280;4676;42.678;23.244;2023-11-21T12:05:15;93589.50;;;9.10;100.00
9277;BME280;4676;42.678;23.244;2023-11-21T12:07:44;93594.56;;;9.10;100.00
9277;BME280;4676;42.678;23.244;2023-11-21T12:10:15;93596.44;;;9.04;100.00
9277;BME280;4676;42.678;23.244;2023-11-21T12:12:44;93598.72;;;8.90;100.00
9277;BME280;4676;42.678;23.244;2023-11-21T12:15:12;93598.38;;;8.79;100.00
9277;BME280;4676;42.678;23.244;2023-11-21T12:17:42;93591.97;;;8.71;100.00
9277;BME280;4676;42.678;23.244;2023-11-21T12:20:10;93593.69;;;8.70;100.00
9277;BME280;4676;42.678;23.244;2023-11-21T12:22:44;93590.88;;;8.56;100.00
9277;BME280;4676;42.678;23.244;2023-11-21T12:25:14;93582.19;;;8.63;100.00
9277;BME280;4676;42.678;23.244;2023-11-21T12:27:44;93586.63;;;8.58;100.00
9277;BME280;4676;42.678;23.244;2023-11-21T12:30:13;93592.84;;;8.49;100.00
9277;BME280;4676;42.678;23.244;2023-11-21T12:32:41;93602.28;;;8.44;100.00
9277;BME280;4676;42.678;23.244;2023-11-21T12:35:09;93592.88;;;8.48;100.00
9277;BME280;4676;42.678;23.244;2023-11-21T12:37:37;93591.28;;;8.47;100.00
9277;BME280;4676;42.678;23.244;2023-11-21T12:40:05;93579.13;;;8.55;100.00
9277;BME280;4676;42.678;23.244;2023-11-21T12:42:34;93578.00;;;8.62;100.00
9277;BME280;4676;42.678;23.244;2023-11-21T12:45:09;93575.28;;;8.46;100.00
9277;BME280;4676;42.678;23.244;2023-11-21T12:47:40;93568.47;;;8.48;100.00
9277;BME280;4676;42.678;23.244;2023-11-21T12:50:08;93561.88;;;8.44;100.00
9277;BME280;4676;42.678;23.244;2023-11-21T12:52:40;93555.13;;;8.45;100.00
9277;BME280;4676;42.678;23.244;2023-11-21T12:55:09;93558.75;;;8.39;100.00
9277;BME280;4676;42.678;23.244;2023-11-21T12:57:43;93553.75;;;8.38;100.00
9277;BME280;4676;42.678;23.244;2023-11-21T13:00:11;93548.53;;;8.63;100.00
9277;BME280;4676;42.678;23.244;2023-11-21T13:02:51;93544.56;;;8.57;100.00
9277;BME280;4676;42.678;23.244;2023-11-21T13:05:24;93529.28;;;8.60;100.00
9277;BME280;4676;42.678;23.244;2023-11-21T13:07:52;93549.47;;;8.80;100.00
9277;BME280;4676;42.678;23.244;2023-11-21T13:10:21;93540.13;;;8.62;100.00
9277;BME280;4676;42.678;23.244;2023-11-21T13:12:52;93537.13;;;8.54;100.00
9277;BME280;4676;42.678;23.244;2023-11-21T13:15:20;93542.59;;;8.43;100.00
9277;BME280;4676;42.678;23.244;2023-11-21T13:17:47;93552.41;;;8.51;100.00